createdAt,value
2017-10-29T00:02:09.785Z,12.90
2017-10-29T00:04:41.488Z,12.90
2017-10-29T00:07:12.994Z,12.90
2017-10-29T00:09:46.424Z,12.70
2017-10-29T00:12:19.103Z,12.70
2017-10-29T00:14:50.942Z,12.70
2017-10-29T00:17:22.705Z,12.70
2017-10-29T00:19:54.690Z,12.70
2017-10-29T00:22:26.006Z,12.70
2017-10-29T00:24:58.496Z,12.70
2017-10-29T00:27:30.014Z,12.70
2017-10-29T00:30:02.716Z,12.80
2017-10-29T00:32:34.371Z,12.80
2017-10-29T00:35:05.735Z,12.70
2017-10-29T00:37:37.788Z,12.70
2017-10-29T00:40:09.462Z,12.70
2017-10-29T00:42:41.596Z,12.70
2017-10-29T00:45:13.881Z,12.60
2017-10-29T00:47:46.534Z,12.60
2017-10-29T00:50:17.941Z,12.60
2017-10-29T00:55:25.395Z,12.50
2017-10-29T00:57:56.652Z,12.50
2017-10-29T01:00:28.752Z,12.50
2017-10-29T01:03:00.048Z,12.50
2017-10-29T01:05:31.694Z,12.50
2017-10-29T01:08:02.689Z,12.50
2017-10-29T01:10:33.836Z,12.50
2017-10-29T01:13:05.491Z,12.60
2017-10-29T01:15:37.553Z,12.60
2017-10-29T01:18:09.229Z,12.70
2017-10-29T01:20:43.516Z,12.70
2017-10-29T01:23:14.891Z,12.70
2017-10-29T01:25:47.147Z,12.70
2017-10-29T01:28:23.283Z,12.70
2017-10-29T01:30:55.068Z,12.60
2017-10-29T01:33:27.112Z,12.60
2017-10-29T01:35:58.892Z,12.60
2017-10-29T01:38:30.932Z,12.50
2017-10-29T01:41:06.479Z,12.50
2017-10-29T01:43:38.301Z,12.50
2017-10-29T01:46:11.633Z,12.50
2017-10-29T01:48:43.085Z,12.50
2017-10-29T01:51:14.958Z,12.50
2017-10-29T01:53:46.204Z,12.60
2017-10-29T01:56:19.069Z,12.50
2017-10-29T01:58:51.167Z,12.50
2017-10-29T02:01:23.021Z,12.50
2017-10-29T02:18:46.338Z,12.50
2017-10-29T02:21:18.123Z,12.50
2017-10-29T02:23:50.304Z,12.60
2017-10-29T02:26:22.639Z,12.60
2017-10-29T02:29:07.780Z,12.60
2017-10-29T02:31:59.080Z,12.60
2017-10-29T02:34:40.300Z,12.60
2017-10-29T02:37:23.017Z,12.60
2017-10-29T02:42:54.529Z,12.60
2017-10-29T02:45:36.677Z,12.20
2017-10-29T02:48:32.254Z,12.20
2017-10-29T02:51:03.802Z,12.00
2017-10-29T02:53:36.328Z,11.70
2017-10-29T03:01:14.327Z,11.60
2017-10-29T03:03:54.080Z,11.50
2017-10-29T03:06:40.466Z,11.50
2017-10-29T03:09:11.942Z,11.40
2017-10-29T03:11:43.674Z,11.40
2017-10-29T03:14:15.137Z,11.40
2017-10-29T03:17:05.744Z,11.40
2017-10-29T03:19:39.235Z,11.50
2017-10-29T03:22:42.888Z,11.40
2017-10-29T03:32:16.470Z,11.40
2017-10-29T03:34:50.503Z,11.40
2017-10-29T03:37:29.406Z,11.40
2017-10-29T03:40:01.015Z,11.40
2017-10-29T03:42:44.950Z,11.40
2017-10-29T03:45:20.609Z,11.30
2017-10-29T03:48:20.580Z,11.20
2017-10-29T03:55:09.176Z,11.00
2017-10-29T03:58:04.069Z,10.80
2017-10-29T04:00:38.334Z,10.60
2017-10-29T04:03:16.206Z,10.60
2017-10-29T04:05:47.823Z,10.60
2017-10-29T04:08:34.956Z,10.60
2017-10-29T04:11:05.977Z,10.60
2017-10-29T04:13:37.648Z,10.50
2017-10-29T04:16:11.255Z,10.50
2017-10-29T04:18:48.177Z,10.40
2017-10-29T04:21:20.386Z,10.40
2017-10-29T04:23:56.473Z,10.40
2017-10-29T04:26:27.878Z,10.40
2017-10-29T04:29:00.063Z,10.40
2017-10-29T04:34:16.994Z,10.40
2017-10-29T04:36:50.906Z,10.40
2017-10-29T04:39:30.437Z,10.30
2017-10-29T04:42:01.805Z,10.30
2017-10-29T04:44:33.739Z,10.30
2017-10-29T04:47:04.859Z,10.30
2017-10-29T04:49:38.607Z,10.30
2017-10-29T04:52:11.514Z,10.20
2017-10-29T04:55:05.116Z,10.20
2017-10-29T05:00:51.988Z,10.20
2017-10-29T05:03:31.302Z,10.10
2017-10-29T05:06:42.148Z,10.10
2017-10-29T05:12:09.297Z,9.90
2017-10-29T05:14:46.494Z,9.90
2017-10-29T05:17:53.759Z,9.90
2017-10-29T05:20:33.302Z,9.80
2017-10-29T05:23:04.398Z,9.80
2017-10-29T05:25:35.584Z,9.80
2017-10-29T05:28:37.706Z,9.80
2017-10-29T05:31:25.354Z,9.70
2017-10-29T05:34:18.526Z,9.70
2017-10-29T05:36:55.230Z,9.70
2017-10-29T05:39:28.246Z,9.70
2017-10-29T05:42:01.145Z,9.70
2017-10-29T05:44:59.693Z,9.70
2017-10-29T05:47:30.801Z,9.70
2017-10-29T05:50:03.807Z,9.60
2017-10-29T05:52:39.542Z,9.60
2017-10-29T05:55:44.445Z,9.70
2017-10-29T05:58:46.451Z,9.60
2017-10-29T06:09:40.297Z,9.60
2017-10-29T06:15:28.270Z,9.60
2017-10-29T06:18:09.591Z,9.50
2017-10-29T06:23:00.851Z,9.50
2017-10-29T06:31:37.058Z,9.50
2017-10-29T06:37:32.889Z,9.40
2017-10-29T06:42:50.573Z,9.30
2017-10-29T06:45:31.809Z,9.40
2017-10-29T06:48:19.209Z,9.40
2017-10-29T06:51:56.203Z,9.40
2017-10-29T06:54:28.766Z,9.40
2017-10-29T06:57:01.982Z,9.40
2017-10-29T06:59:34.151Z,9.30
2017-10-29T07:02:31.522Z,9.40
2017-10-29T07:09:15.576Z,9.40
2017-10-29T07:12:06.598Z,9.40
2017-10-29T07:14:43.631Z,9.50
2017-10-29T07:17:15.144Z,9.40
2017-10-29T07:23:14.603Z,9.40
2017-10-29T07:28:11.665Z,9.50
2017-10-29T07:34:03.578Z,9.60
2017-10-29T07:36:37.641Z,9.80
2017-10-29T07:39:10.518Z,9.90
2017-10-29T07:41:55.686Z,10.00
2017-10-29T07:44:26.613Z,10.10
2017-10-29T07:47:00.720Z,10.20
2017-10-29T07:49:34.978Z,10.40
2017-10-29T07:52:14.792Z,10.40
2017-10-29T07:54:57.829Z,10.30
2017-10-29T08:00:35.649Z,10.00
2017-10-29T08:03:07.159Z,10.00
2017-10-29T08:06:01.265Z,10.00
2017-10-29T08:08:32.575Z,10.00
2017-10-29T08:14:18.678Z,10.40
2017-10-29T08:17:10.246Z,10.30
2017-10-29T08:19:56.741Z,10.10
2017-10-29T08:22:31.174Z,10.30
2017-10-29T08:25:46.797Z,10.50
2017-10-29T08:28:25.550Z,10.70
2017-10-29T08:31:05.381Z,11.00
2017-10-29T08:33:52.545Z,11.20
2017-10-29T08:36:24.273Z,11.40
2017-10-29T08:39:13.451Z,11.50
2017-10-29T08:41:46.732Z,11.60
2017-10-29T08:44:30.756Z,11.70
2017-10-29T08:47:12.805Z,11.70
2017-10-29T08:49:43.981Z,11.70
2017-10-29T08:52:15.360Z,11.50
2017-10-29T08:54:46.676Z,11.30
2017-10-29T08:57:37.662Z,11.50
2017-10-29T09:00:23.691Z,11.90
2017-10-29T09:03:15.822Z,11.90
2017-10-29T09:05:50.364Z,11.60
2017-10-29T09:11:48.455Z,11.10
2017-10-29T09:14:21.772Z,11.30
2017-10-29T09:17:19.836Z,11.30
2017-10-29T09:20:45.117Z,11.60
2017-10-29T09:23:33.367Z,11.50
2017-10-29T09:26:12.617Z,11.60
2017-10-29T09:28:44.287Z,12.00
2017-10-29T09:31:15.959Z,12.30
2017-10-29T09:33:49.731Z,12.50
2017-10-29T09:36:30.071Z,12.60
2017-10-29T09:39:02.859Z,13.00
2017-10-29T09:41:33.767Z,13.00
2017-10-29T09:44:04.460Z,13.40
2017-10-29T09:46:35.753Z,13.50
2017-10-29T09:49:16.180Z,13.70
2017-10-29T09:51:47.171Z,13.60
2017-10-29T09:54:33.206Z,13.30
2017-10-29T09:57:10.996Z,13.00
2017-10-29T09:59:43.072Z,12.80
2017-10-29T10:02:14.214Z,12.80
2017-10-29T10:05:21.731Z,12.90
2017-10-29T10:07:53.033Z,12.70
2017-10-29T10:10:24.055Z,12.60
2017-10-29T10:12:55.394Z,12.50
2017-10-29T10:15:27.380Z,12.50
2017-10-29T10:18:43.386Z,12.40
2017-10-29T10:21:18.450Z,12.30
2017-10-29T10:23:49.380Z,12.00
2017-10-29T10:26:40.883Z,11.80
2017-10-29T10:29:14.731Z,11.60
2017-10-29T10:31:46.119Z,11.50
2017-10-29T10:34:20.485Z,11.40
2017-10-29T10:36:52.018Z,11.40
2017-10-29T10:39:23.263Z,11.50
2017-10-29T10:41:56.920Z,11.50
2017-10-29T10:44:28.425Z,11.50
2017-10-29T10:46:59.204Z,11.60
2017-10-29T10:49:40.223Z,11.80
2017-10-29T10:52:14.930Z,12.10
2017-10-29T10:54:45.712Z,12.00
2017-10-29T10:57:18.144Z,12.00
2017-10-29T10:59:49.826Z,12.20
2017-10-29T11:02:25.195Z,12.20
2017-10-29T11:04:57.506Z,12.20
2017-10-29T11:07:28.401Z,12.20
2017-10-29T11:10:01.916Z,12.10
2017-10-29T11:12:37.038Z,11.80
2017-10-29T11:15:22.112Z,11.50
2017-10-29T11:17:54.058Z,10.60
2017-10-29T11:20:25.288Z,10.50
2017-10-29T11:22:58.376Z,10.20
2017-10-29T11:25:29.540Z,9.80
2017-10-29T11:28:13.717Z,9.70
2017-10-29T11:30:47.334Z,9.60
2017-10-29T11:35:41.313Z,9.60
2017-10-29T11:38:16.995Z,9.70
2017-10-29T11:40:48.253Z,10.40
2017-10-29T11:43:19.419Z,11.10
2017-10-29T11:45:50.362Z,11.60
2017-10-29T11:48:21.147Z,12.40
2017-10-29T11:50:51.918Z,13.10
2017-10-29T11:53:23.001Z,13.00
2017-10-29T11:55:53.687Z,13.10
2017-10-29T11:58:24.731Z,13.20
2017-10-29T12:00:56.709Z,13.30
2017-10-29T12:03:27.453Z,13.40
2017-10-29T12:06:03.090Z,13.10
2017-10-29T12:08:51.561Z,12.70
2017-10-29T12:11:22.880Z,11.90
2017-10-29T12:13:54.103Z,11.10
2017-10-29T12:16:25.233Z,10.70
2017-10-29T12:18:58.552Z,10.60
2017-10-29T12:21:41.691Z,10.60
2017-10-29T12:24:12.497Z,10.50
2017-10-29T12:26:44.097Z,10.40
2017-10-29T12:29:15.648Z,10.50
2017-10-29T12:31:57.748Z,10.80
2017-10-29T12:34:31.503Z,11.20
2017-10-29T12:37:14.988Z,11.50
2017-10-29T12:39:46.752Z,12.00
2017-10-29T12:42:19.721Z,12.00
2017-10-29T12:44:51.493Z,11.80
2017-10-29T12:47:32.919Z,11.50
2017-10-29T12:50:04.392Z,11.30
2017-10-29T12:55:17.979Z,11.60
2017-10-29T12:57:49.289Z,11.60
2017-10-29T13:00:26.797Z,11.40
2017-10-29T13:02:58.359Z,11.20
2017-10-29T13:05:34.112Z,11.40
2017-10-29T13:08:05.558Z,11.60
2017-10-29T13:10:37.496Z,11.90
2017-10-29T13:13:46.139Z,11.80
2017-10-29T13:20:09.490Z,11.60
2017-10-29T13:22:46.339Z,11.50
2017-10-29T13:28:43.894Z,11.60
2017-10-29T13:31:49.410Z,11.40
2017-10-29T13:34:49.613Z,11.30
2017-10-29T13:37:33.455Z,11.30
2017-10-29T13:40:10.316Z,11.20
2017-10-29T13:43:51.001Z,10.90
2017-10-29T13:46:23.577Z,10.60
2017-10-29T13:48:58.375Z,10.40
2017-10-29T13:51:40.389Z,10.30
2017-10-29T13:54:13.035Z,10.30
2017-10-29T13:56:53.724Z,10.50
2017-10-29T13:59:30.181Z,10.80
2017-10-29T14:02:05.198Z,11.00
2017-10-29T14:04:37.885Z,11.40
2017-10-29T14:07:13.037Z,11.40
2017-10-29T14:09:58.529Z,11.40
2017-10-29T14:15:24.242Z,10.90
2017-10-29T14:18:28.621Z,10.70
2017-10-29T14:21:06.522Z,10.40
2017-10-29T14:23:42.651Z,10.30
2017-10-29T14:26:14.495Z,10.30
2017-10-29T14:28:48.108Z,10.20
2017-10-29T14:31:24.676Z,10.10
2017-10-29T14:34:05.098Z,10.20
2017-10-29T14:36:37.375Z,10.10
2017-10-29T14:39:10.487Z,10.10
2017-10-29T14:41:43.202Z,10.10
2017-10-29T14:44:16.663Z,10.20
2017-10-29T14:46:48.311Z,10.20
2017-10-29T14:51:58.898Z,10.30
2017-10-29T14:54:35.515Z,10.30
2017-10-29T14:57:32.676Z,10.30
2017-10-29T15:00:09.292Z,10.30
2017-10-29T15:02:42.366Z,10.30
2017-10-29T15:05:14.327Z,10.30
2017-10-29T15:08:00.254Z,10.20
2017-10-29T15:10:45.796Z,10.20
2017-10-29T15:13:26.371Z,10.30
2017-10-29T15:18:55.140Z,10.20
2017-10-29T15:21:27.457Z,10.20
2017-10-29T15:23:58.435Z,10.20
2017-10-29T15:26:29.768Z,10.20
2017-10-29T15:29:00.933Z,10.20
2017-10-29T15:31:31.654Z,10.20
2017-10-29T15:34:04.249Z,10.20
2017-10-29T15:36:35.541Z,10.10
2017-10-29T15:39:08.146Z,10.10
2017-10-29T15:42:10.307Z,10.10
2017-10-29T15:44:47.614Z,10.00
2017-10-29T15:47:24.206Z,9.90
2017-10-29T15:50:20.800Z,9.90
2017-10-29T15:53:16.160Z,9.90
2017-10-29T15:56:20.198Z,9.90
2017-10-29T15:59:13.110Z,9.80
2017-10-29T16:02:12.488Z,9.80
2017-10-29T16:08:11.289Z,9.70
2017-10-29T16:10:49.403Z,9.70
2017-10-29T16:16:08.822Z,9.60
2017-10-29T16:18:46.145Z,9.60
2017-10-29T16:21:26.945Z,9.50
2017-10-29T16:24:01.978Z,9.40
2017-10-29T16:26:47.868Z,9.30
2017-10-29T16:29:24.378Z,9.20
2017-10-29T16:31:59.774Z,9.10
2017-10-29T16:34:35.532Z,9.10
2017-10-29T16:37:14.845Z,9.20
2017-10-29T16:43:22.043Z,9.10
2017-10-29T16:46:12.583Z,9.10
2017-10-29T16:48:50.064Z,9.10
2017-10-29T16:54:12.339Z,9.10
2017-10-29T16:56:48.571Z,9.10
2017-10-29T16:59:28.091Z,9.10
2017-10-29T17:02:07.353Z,9.00
2017-10-29T17:04:48.419Z,9.00
2017-10-29T17:07:24.260Z,8.90
2017-10-29T17:10:03.493Z,8.90
2017-10-29T17:12:38.041Z,8.90
2017-10-29T17:15:16.163Z,8.80
2017-10-29T17:17:54.696Z,8.80
2017-10-29T17:20:32.561Z,8.80
2017-10-29T17:23:32.910Z,8.80
2017-10-29T17:26:27.040Z,8.80
2017-10-29T17:30:37.197Z,8.80
2017-10-29T17:33:17.041Z,8.70
2017-10-29T17:36:17.325Z,8.60
2017-10-29T17:40:59.994Z,8.60
2017-10-29T17:43:42.715Z,8.60
2017-10-29T17:46:24.172Z,8.60
2017-10-29T17:48:58.876Z,8.70
2017-10-29T17:51:37.810Z,8.60
2017-10-29T17:54:22.338Z,8.60
2017-10-29T17:56:58.339Z,8.60
2017-10-29T18:03:10.148Z,8.50
2017-10-29T18:06:16.471Z,8.50
2017-10-29T18:09:28.208Z,8.40
2017-10-29T18:12:15.380Z,8.40
2017-10-29T18:14:54.903Z,8.30
2017-10-29T18:20:16.347Z,8.40
2017-10-29T18:23:12.800Z,8.40
2017-10-29T18:26:16.904Z,8.30
2017-10-29T18:31:44.959Z,8.30
2017-10-29T18:35:25.769Z,8.20
2017-10-29T18:38:00.794Z,8.20
2017-10-29T18:40:33.461Z,8.20
2017-10-29T18:43:15.625Z,8.30
2017-10-29T18:45:47.950Z,8.30
2017-10-29T18:48:44.586Z,8.30
2017-10-29T18:51:23.347Z,8.30
2017-10-29T18:53:54.637Z,8.30
2017-10-29T18:56:26.200Z,8.20
2017-10-29T18:58:58.493Z,8.10
2017-10-29T19:01:34.601Z,8.10
2017-10-29T19:04:08.119Z,8.10
2017-10-29T19:06:52.238Z,8.00
2017-10-29T19:09:25.764Z,8.00
2017-10-29T19:11:59.574Z,8.00
2017-10-29T19:14:32.140Z,8.00
2017-10-29T19:17:09.282Z,8.00
2017-10-29T19:22:50.965Z,7.90
2017-10-29T19:25:44.366Z,7.90
2017-10-29T19:31:22.123Z,8.00
2017-10-29T19:33:53.329Z,8.00
2017-10-29T19:36:28.077Z,7.90
2017-10-29T19:41:42.545Z,7.80
2017-10-29T19:44:17.352Z,7.80
2017-10-29T19:47:09.155Z,7.80
2017-10-29T19:50:11.292Z,7.80
2017-10-29T19:53:10.189Z,7.80
2017-10-29T19:59:38.097Z,7.70
2017-10-29T20:02:45.357Z,7.60
2017-10-29T20:05:22.494Z,7.60
2017-10-29T20:08:19.789Z,7.60
2017-10-29T20:10:59.321Z,7.50
2017-10-29T20:13:37.850Z,7.60
2017-10-29T20:16:37.046Z,7.50
2017-10-29T20:19:18.548Z,7.50
2017-10-29T20:22:13.831Z,7.40
2017-10-29T20:24:54.690Z,7.60
2017-10-29T20:27:35.204Z,7.60
2017-10-29T20:30:12.131Z,7.60
2017-10-29T20:32:56.810Z,7.50
2017-10-29T20:35:37.546Z,7.50
2017-10-29T20:38:14.181Z,7.50
2017-10-29T20:41:29.092Z,7.50
2017-10-29T20:44:07.587Z,7.50
2017-10-29T20:52:34.629Z,7.50
2017-10-29T20:55:11.155Z,7.50
2017-10-29T20:57:51.001Z,7.50
2017-10-29T21:00:26.620Z,7.50
2017-10-29T21:03:07.896Z,7.50
2017-10-29T21:05:53.675Z,7.40
2017-10-29T21:08:31.482Z,7.40
2017-10-29T21:13:58.168Z,7.50
2017-10-29T21:19:45.543Z,7.50
2017-10-29T21:22:29.986Z,7.50
2017-10-29T21:25:07.728Z,7.40
2017-10-29T21:27:46.325Z,7.40
2017-10-29T21:33:19.315Z,7.30
2017-10-29T21:36:12.630Z,7.30
2017-10-29T21:38:55.029Z,7.30
2017-10-29T21:41:38.889Z,7.30
2017-10-29T21:44:18.658Z,7.30
2017-10-29T21:47:07.033Z,7.20
2017-10-29T21:49:43.643Z,7.20
2017-10-29T21:52:19.274Z,7.30
2017-10-29T21:54:58.805Z,7.30
2017-10-29T21:57:37.423Z,7.30
2017-10-29T22:00:19.346Z,7.40
2017-10-29T22:03:04.610Z,7.30
2017-10-29T22:05:44.762Z,7.30
2017-10-29T22:08:22.881Z,7.30
2017-10-29T22:11:12.862Z,7.30
2017-10-29T22:14:03.263Z,7.30
2017-10-29T22:17:12.799Z,7.30
2017-10-29T22:33:43.989Z,7.30
2017-10-29T22:36:25.254Z,7.30
2017-10-29T22:39:09.907Z,7.30
2017-10-29T22:42:08.260Z,7.30
2017-10-29T22:45:04.467Z,7.30
2017-10-29T22:47:55.012Z,7.30
2017-10-29T23:00:59.540Z,7.40
2017-10-29T23:03:40.976Z,7.30
2017-10-29T23:06:24.044Z,7.20
2017-10-29T23:09:18.070Z,7.30
2017-10-29T23:11:55.404Z,7.30
2017-10-29T23:14:34.445Z,7.30
2017-10-29T23:17:40.100Z,7.30
2017-10-29T23:29:20.885Z,7.30
2017-10-29T23:37:53.364Z,7.30
2017-10-29T23:49:48.015Z,7.30
